createdAt,value
2019-05-25T00:00:46.904Z,0.00
2019-05-25T00:01:46.886Z,0.00
2019-05-25T00:02:46.889Z,0.00
2019-05-25T00:03:46.883Z,0.00
2019-05-25T00:04:46.873Z,0.00
2019-05-25T00:05:46.838Z,0.00
2019-05-25T00:06:46.832Z,0.00
2019-05-25T00:07:46.832Z,0.00
2019-05-25T00:08:46.808Z,0.00
2019-05-25T00:09:48.450Z,0.00
2019-05-25T00:10:46.781Z,0.00
2019-05-25T00:11:46.775Z,0.00
2019-05-25T00:12:46.764Z,0.00
2019-05-25T00:13:46.753Z,0.00
2019-05-25T00:14:46.753Z,0.00
2019-05-25T00:15:46.726Z,0.00
2019-05-25T00:16:46.719Z,0.00
2019-05-25T00:17:46.709Z,0.00
2019-05-25T00:18:46.697Z,0.00
2019-05-25T00:19:46.702Z,0.00
2019-05-25T00:20:46.686Z,0.00
2019-05-25T00:21:46.658Z,0.00
2019-05-25T00:22:46.652Z,0.00
2019-05-25T00:23:46.637Z,0.00
2019-05-25T00:24:46.624Z,0.00
2019-05-25T00:25:46.621Z,0.00
2019-05-25T00:26:46.611Z,0.00
2019-05-25T00:27:46.591Z,0.00
2019-05-25T00:28:46.579Z,0.00
2019-05-25T00:29:46.581Z,0.00
2019-05-25T00:30:46.558Z,0.00
2019-05-25T00:31:46.547Z,0.00
2019-05-25T00:32:46.534Z,0.00
2019-05-25T00:33:46.525Z,0.00
2019-05-25T00:34:46.532Z,0.00
2019-05-25T00:35:46.515Z,0.00
2019-05-25T00:36:46.498Z,0.00
2019-05-25T00:37:46.500Z,0.00
2019-05-25T00:38:46.470Z,0.00
2019-05-25T00:39:46.458Z,0.00
2019-05-25T00:40:46.466Z,0.00
2019-05-25T00:41:46.436Z,0.00
2019-05-25T00:42:46.427Z,0.00
2019-05-25T00:43:46.416Z,0.00
2019-05-25T00:44:46.435Z,0.00
2019-05-25T00:45:46.396Z,0.00
2019-05-25T00:46:46.387Z,0.00
2019-05-25T00:47:46.373Z,0.00
2019-05-25T00:48:46.361Z,0.00
2019-05-25T00:49:46.347Z,0.00
2019-05-25T00:50:46.350Z,0.00
2019-05-25T00:51:46.335Z,0.00
2019-05-25T00:52:46.330Z,0.00
2019-05-25T00:53:46.316Z,0.00
2019-05-25T00:54:46.293Z,0.00
2019-05-25T00:55:46.287Z,0.00
2019-05-25T00:56:46.292Z,0.00
2019-05-25T00:57:46.266Z,0.00
2019-05-25T00:58:46.252Z,0.00
2019-05-25T00:59:46.260Z,0.00
2019-05-25T01:00:46.265Z,0.00
2019-05-25T01:01:46.221Z,0.00
2019-05-25T01:02:46.230Z,0.00
2019-05-25T01:03:46.204Z,0.00
2019-05-25T01:04:46.189Z,0.00
2019-05-25T01:05:46.176Z,0.00
2019-05-25T01:06:46.189Z,0.00
2019-05-25T01:07:46.151Z,0.00
2019-05-25T01:08:46.149Z,0.00
2019-05-25T01:09:46.141Z,0.00
2019-05-25T01:10:46.124Z,0.00
2019-05-25T01:11:46.129Z,0.00
2019-05-25T01:12:46.112Z,0.00
2019-05-25T01:13:46.086Z,0.00
2019-05-25T01:14:46.084Z,0.00
2019-05-25T01:15:46.064Z,0.00
2019-05-25T01:16:46.108Z,0.00
2019-05-25T01:17:46.055Z,0.00
2019-05-25T01:18:46.032Z,0.00
2019-05-25T01:19:46.029Z,0.00
2019-05-25T01:20:46.010Z,0.00
2019-05-25T01:21:46.009Z,0.00
2019-05-25T01:22:45.991Z,0.00
2019-05-25T01:23:45.979Z,0.00
2019-05-25T01:24:45.966Z,0.00
2019-05-25T01:25:45.954Z,0.00
2019-05-25T01:26:45.954Z,0.00
2019-05-25T01:27:45.944Z,0.00
2019-05-25T01:28:45.925Z,0.00
2019-05-25T01:29:45.912Z,0.00
2019-05-25T01:30:45.899Z,0.00
2019-05-25T01:31:45.891Z,0.00
2019-05-25T01:32:45.898Z,0.00
2019-05-25T01:33:45.868Z,0.00
2019-05-25T01:34:45.857Z,0.00
2019-05-25T01:35:45.846Z,0.00
2019-05-25T01:36:45.840Z,0.00
2019-05-25T01:37:48.447Z,0.00
2019-05-25T01:38:45.821Z,0.00
2019-05-25T01:39:45.805Z,0.00
2019-05-25T01:40:45.793Z,0.00
2019-05-25T01:41:45.782Z,0.00
2019-05-25T01:42:45.785Z,0.00
2019-05-25T01:43:45.771Z,0.00
2019-05-25T01:44:45.749Z,0.00
2019-05-25T01:45:45.735Z,0.00
2019-05-25T01:46:45.726Z,0.00
2019-05-25T01:47:45.712Z,0.00
2019-05-25T01:48:45.710Z,0.00
2019-05-25T01:49:45.692Z,0.00
2019-05-25T01:50:45.681Z,0.00
2019-05-25T01:51:45.670Z,0.00
2019-05-25T01:52:45.658Z,0.00
2019-05-25T01:53:45.697Z,0.00
2019-05-25T01:54:58.913Z,0.00
2019-05-25T01:55:46.632Z,0.00
2019-05-25T01:56:45.610Z,0.00
2019-05-25T01:57:45.602Z,0.00
2019-05-25T01:58:45.592Z,0.00
2019-05-25T01:59:45.595Z,0.00
2019-05-25T02:00:45.565Z,0.00
2019-05-25T02:01:45.555Z,0.00
2019-05-25T02:02:45.548Z,0.00
2019-05-25T02:03:45.532Z,0.00
2019-05-25T02:04:45.534Z,0.00
2019-05-25T02:05:45.520Z,0.00
2019-05-25T02:06:45.500Z,0.00
2019-05-25T02:07:45.489Z,0.00
2019-05-25T02:08:45.484Z,0.00
2019-05-25T02:09:45.478Z,0.00
2019-05-25T02:10:45.453Z,0.00
2019-05-25T02:11:45.451Z,0.00
2019-05-25T02:12:45.433Z,0.00
2019-05-25T02:13:45.421Z,0.00
2019-05-25T02:14:45.439Z,0.00
2019-05-25T02:15:45.401Z,0.00
2019-05-25T02:16:45.389Z,0.00
2019-05-25T02:17:45.382Z,0.00
2019-05-25T02:18:45.865Z,0.00
2019-05-25T02:19:45.355Z,0.00
2019-05-25T02:20:45.361Z,0.00
2019-05-25T02:21:45.337Z,0.00
2019-05-25T02:22:45.319Z,0.00
2019-05-25T02:23:45.312Z,0.00
2019-05-25T02:24:45.301Z,0.00
2019-05-25T02:25:45.303Z,0.00
2019-05-25T02:26:45.300Z,0.00
2019-05-25T02:27:45.270Z,0.00
2019-05-25T02:28:45.256Z,0.00
2019-05-25T02:29:45.249Z,0.00
2019-05-25T02:30:46.947Z,0.00
2019-05-25T02:31:45.237Z,0.00
2019-05-25T02:32:45.217Z,0.00
2019-05-25T02:33:45.204Z,0.00
2019-05-25T02:34:45.187Z,0.00
2019-05-25T02:35:45.179Z,0.00
2019-05-25T02:36:45.178Z,0.00
2019-05-25T02:37:45.160Z,0.00
2019-05-25T02:38:45.157Z,4.00
2019-05-25T02:39:45.139Z,4.00
2019-05-25T02:40:45.145Z,4.00
2019-05-25T02:41:45.111Z,4.00
2019-05-25T02:42:45.112Z,4.00
2019-05-25T02:43:45.091Z,0.00
2019-05-25T02:44:45.083Z,0.00
2019-05-25T02:45:45.081Z,4.00
2019-05-25T02:46:45.067Z,4.00
2019-05-25T02:47:45.050Z,4.00
2019-05-25T02:48:45.041Z,4.00
2019-05-25T02:49:45.020Z,8.00
2019-05-25T02:50:45.021Z,4.00
2019-05-25T02:51:45.006Z,4.00
2019-05-25T02:52:44.986Z,8.00
2019-05-25T02:53:44.991Z,8.00
2019-05-25T02:54:44.966Z,8.00
2019-05-25T02:55:44.979Z,12.00
2019-05-25T02:56:44.944Z,12.00
2019-05-25T02:57:44.934Z,12.00
2019-05-25T02:58:44.931Z,16.00
2019-05-25T02:59:44.922Z,16.00
2019-05-25T03:00:44.904Z,16.00
2019-05-25T03:01:44.890Z,20.00
2019-05-25T03:02:44.969Z,20.00
2019-05-25T03:03:44.871Z,28.00
2019-05-25T03:04:44.856Z,32.00
2019-05-25T03:05:44.990Z,32.00
2019-05-25T03:06:44.833Z,36.00
2019-05-25T03:07:44.861Z,36.00
2019-05-25T03:08:44.810Z,36.00
2019-05-25T03:09:44.798Z,40.00
2019-05-25T03:10:44.788Z,44.00
2019-05-25T03:11:44.776Z,48.00
2019-05-25T03:12:44.762Z,56.00
2019-05-25T03:13:44.764Z,64.00
2019-05-25T03:14:44.743Z,72.00
2019-05-25T03:15:44.751Z,80.00
2019-05-25T03:16:44.717Z,92.00
2019-05-25T03:17:44.706Z,96.00
2019-05-25T03:18:44.698Z,112.00
2019-05-25T03:19:44.687Z,120.00
2019-05-25T03:20:44.675Z,128.00
2019-05-25T03:21:44.676Z,140.00
2019-05-25T03:22:44.649Z,152.00
2019-05-25T03:23:44.648Z,156.00
2019-05-25T03:24:44.684Z,164.00
2019-05-25T03:25:49.727Z,180.00
2019-05-25T03:26:45.616Z,192.00
2019-05-25T03:27:44.592Z,196.00
2019-05-25T03:28:44.584Z,200.00
2019-05-25T03:29:44.599Z,208.00
2019-05-25T03:30:44.560Z,220.00
2019-05-25T03:31:44.550Z,232.00
2019-05-25T03:32:44.555Z,240.00
2019-05-25T03:33:44.525Z,252.00
2019-05-25T03:34:44.512Z,260.00
2019-05-25T03:35:44.569Z,272.00
2019-05-25T03:36:44.492Z,284.00
2019-05-25T03:37:44.483Z,304.00
2019-05-25T03:38:44.465Z,316.00
2019-05-25T03:39:44.458Z,332.00
2019-05-25T03:40:44.450Z,348.00
2019-05-25T03:41:44.442Z,364.00
2019-05-25T03:42:44.422Z,376.00
2019-05-25T03:43:44.410Z,380.00
2019-05-25T03:44:44.404Z,396.00
2019-05-25T03:45:44.405Z,412.00
2019-05-25T03:46:44.376Z,424.00
2019-05-25T03:47:44.365Z,436.00
2019-05-25T03:48:44.362Z,444.00
2019-05-25T03:49:44.349Z,432.00
2019-05-25T03:50:44.350Z,428.00
2019-05-25T03:51:44.326Z,456.00
2019-05-25T03:52:44.310Z,496.00
2019-05-25T03:53:44.293Z,496.00
2019-05-25T03:54:44.290Z,480.00
2019-05-25T03:55:44.275Z,484.00
2019-05-25T03:56:44.275Z,504.00
2019-05-25T03:57:44.248Z,556.00
2019-05-25T03:58:44.238Z,604.00
2019-05-25T03:59:44.230Z,668.00
2019-05-25T04:00:44.214Z,744.00
2019-05-25T04:01:44.221Z,796.00
2019-05-25T04:02:44.219Z,804.00
2019-05-25T04:03:44.188Z,776.00
2019-05-25T04:04:44.239Z,820.00
2019-05-25T04:05:44.162Z,880.00
2019-05-25T04:06:44.160Z,936.00
2019-05-25T04:07:44.137Z,960.00
2019-05-25T04:08:44.148Z,980.00
2019-05-25T04:09:44.119Z,1024.00
2019-05-25T04:10:44.133Z,1052.00
2019-05-25T04:11:44.096Z,1056.00
2019-05-25T04:12:44.082Z,1060.00
2019-05-25T04:13:44.093Z,1096.00
2019-05-25T04:14:44.065Z,1120.00
2019-05-25T04:15:44.100Z,1192.00
2019-05-25T04:16:44.030Z,1304.00
2019-05-25T04:17:44.023Z,1364.00
2019-05-25T04:18:44.021Z,1432.00
2019-05-25T04:19:43.997Z,1440.00
2019-05-25T04:20:44.007Z,1376.00
2019-05-25T04:21:43.980Z,1400.00
2019-05-25T04:22:43.972Z,1540.00
2019-05-25T04:23:43.959Z,1640.00
2019-05-25T04:24:43.962Z,1624.00
2019-05-25T04:25:43.969Z,1608.00
2019-05-25T04:26:43.933Z,1624.00
2019-05-25T04:27:43.913Z,1652.00
2019-05-25T04:28:43.905Z,1716.00
2019-05-25T04:29:43.893Z,1928.00
2019-05-25T04:30:43.936Z,2264.00
2019-05-25T04:31:43.862Z,2536.00
2019-05-25T04:32:43.868Z,2636.00
2019-05-25T04:33:43.844Z,2508.00
2019-05-25T04:34:43.933Z,2168.00
2019-05-25T04:35:43.845Z,2012.00
2019-05-25T04:36:43.827Z,2048.00
2019-05-25T04:37:43.802Z,2124.00
2019-05-25T04:38:43.871Z,2120.00
2019-05-25T04:39:43.774Z,2084.00
2019-05-25T04:40:43.765Z,2072.00
2019-05-25T04:41:43.767Z,2044.00
2019-05-25T04:42:43.739Z,1944.00
2019-05-25T04:43:43.741Z,1820.00
2019-05-25T04:44:43.819Z,1764.00
2019-05-25T04:45:43.710Z,1768.00
2019-05-25T04:46:43.765Z,1796.00
2019-05-25T04:47:43.857Z,1844.00
2019-05-25T04:48:43.687Z,1940.00
2019-05-25T04:49:43.667Z,2156.00
2019-05-25T04:50:43.694Z,2408.00
2019-05-25T04:51:43.730Z,2488.00
2019-05-25T04:52:43.631Z,2284.00
2019-05-25T04:53:43.620Z,2100.00
2019-05-25T04:54:43.613Z,2036.00
2019-05-25T04:55:43.599Z,2056.00
2019-05-25T04:56:43.589Z,2128.00
2019-05-25T04:57:43.593Z,2200.00
2019-05-25T04:58:43.568Z,2196.00
2019-05-25T04:59:43.554Z,2208.00
2019-05-25T05:00:43.554Z,2236.00
2019-05-25T05:01:43.532Z,2260.00
2019-05-25T05:02:43.520Z,2348.00
2019-05-25T05:03:43.511Z,2452.00
2019-05-25T05:04:43.496Z,2516.00
2019-05-25T05:05:43.506Z,2396.00
2019-05-25T05:06:43.485Z,2344.00
2019-05-25T05:07:43.470Z,2524.00
2019-05-25T05:08:43.454Z,2720.00
2019-05-25T05:09:43.440Z,2704.00
2019-05-25T05:10:43.433Z,2800.00
2019-05-25T05:11:43.440Z,3240.00
2019-05-25T05:12:43.409Z,3600.00
2019-05-25T05:13:43.399Z,3824.00
2019-05-25T05:14:43.392Z,4000.00
2019-05-25T05:15:43.388Z,4528.00
2019-05-25T05:16:43.378Z,4928.00
2019-05-25T05:17:43.354Z,5100.00
2019-05-25T05:18:43.345Z,5156.00
2019-05-25T05:19:43.347Z,5232.00
2019-05-25T05:20:43.320Z,5248.00
2019-05-25T05:21:43.330Z,4944.00
2019-05-25T05:22:43.297Z,4672.00
2019-05-25T05:23:43.285Z,4968.00
2019-05-25T05:24:43.282Z,4964.00
2019-05-25T05:25:43.266Z,4576.00
2019-05-25T05:26:55.199Z,4060.00
2019-05-25T05:27:44.240Z,3616.00
2019-05-25T05:28:43.234Z,3860.00
2019-05-25T05:29:43.219Z,4880.00
2019-05-25T05:30:43.268Z,5692.00
2019-05-25T05:31:43.201Z,5868.00
2019-05-25T05:32:43.193Z,6496.00
2019-05-25T05:33:43.194Z,7316.00
2019-05-25T05:34:43.171Z,7592.00
2019-05-25T05:35:43.155Z,7696.00
2019-05-25T05:36:43.154Z,7772.00
2019-05-25T05:37:43.135Z,7812.00
2019-05-25T05:38:43.123Z,7912.00
2019-05-25T05:39:43.121Z,8120.00
2019-05-25T05:40:43.099Z,8308.00
2019-05-25T05:41:43.097Z,8484.00
2019-05-25T05:42:43.100Z,8696.00
2019-05-25T05:43:43.071Z,8900.00
2019-05-25T05:44:43.068Z,9016.00
2019-05-25T05:45:43.066Z,9024.00
2019-05-25T05:46:43.032Z,8808.00
2019-05-25T05:47:43.035Z,8408.00
2019-05-25T05:48:43.015Z,7896.00
2019-05-25T05:49:42.997Z,7620.00
2019-05-25T05:50:42.988Z,7568.00
2019-05-25T05:51:42.983Z,7376.00
2019-05-25T05:52:42.983Z,7064.00
2019-05-25T05:53:42.956Z,6752.00
2019-05-25T05:54:42.942Z,6940.00
2019-05-25T05:55:42.967Z,7596.00
2019-05-25T05:56:42.924Z,8104.00
2019-05-25T05:57:42.913Z,8192.00
2019-05-25T05:58:42.902Z,8132.00
2019-05-25T05:59:42.888Z,8272.00
2019-05-25T06:00:42.895Z,8604.00
2019-05-25T06:01:42.891Z,8808.00
2019-05-25T06:02:42.851Z,8844.00
2019-05-25T06:03:42.844Z,8888.00
2019-05-25T06:04:42.832Z,8952.00
2019-05-25T06:05:42.816Z,8828.00
2019-05-25T06:06:42.815Z,8772.00
2019-05-25T06:07:42.829Z,8964.00
2019-05-25T06:08:42.787Z,9120.00
2019-05-25T06:09:42.780Z,9120.00
2019-05-25T06:10:42.766Z,9136.00
2019-05-25T06:11:42.755Z,9180.00
2019-05-25T06:12:42.744Z,9276.00
2019-05-25T06:13:42.762Z,9484.00
2019-05-25T06:14:42.719Z,9708.00
2019-05-25T06:15:42.713Z,9708.00
2019-05-25T06:16:42.707Z,9688.00
2019-05-25T06:17:42.688Z,9880.00
2019-05-25T06:18:42.676Z,10060.00
2019-05-25T06:19:42.684Z,10072.00
2019-05-25T06:20:42.658Z,10116.00
2019-05-25T06:21:42.658Z,10128.00
2019-05-25T06:22:42.629Z,10280.00
2019-05-25T06:23:42.621Z,10616.00
2019-05-25T06:24:42.622Z,10860.00
2019-05-25T06:25:42.598Z,10760.00
2019-05-25T06:26:42.621Z,10600.00
2019-05-25T06:27:42.574Z,10608.00
2019-05-25T06:28:42.567Z,10572.00
2019-05-25T06:29:42.551Z,10544.00
2019-05-25T06:30:42.539Z,10664.00
2019-05-25T06:31:42.535Z,10692.00
2019-05-25T06:32:42.530Z,10732.00
2019-05-25T06:33:42.509Z,11168.00
2019-05-25T06:34:42.497Z,11684.00
2019-05-25T06:35:42.488Z,12108.00
2019-05-25T06:36:42.475Z,12408.00
2019-05-25T06:37:42.475Z,12440.00
2019-05-25T06:38:42.449Z,12228.00
2019-05-25T06:39:42.435Z,11916.00
2019-05-25T06:40:42.426Z,11808.00
2019-05-25T06:41:42.417Z,11976.00
2019-05-25T06:42:42.423Z,12204.00
2019-05-25T06:43:42.396Z,12328.00
2019-05-25T06:44:42.399Z,12432.00
2019-05-25T06:45:42.378Z,12488.00
2019-05-25T06:46:42.361Z,12668.00
2019-05-25T06:47:42.359Z,12864.00
2019-05-25T06:48:42.360Z,12952.00
2019-05-25T06:49:42.334Z,12932.00
2019-05-25T06:50:42.338Z,12880.00
2019-05-25T06:51:42.311Z,12880.00
2019-05-25T06:52:42.328Z,12940.00
2019-05-25T06:53:42.283Z,12968.00
2019-05-25T06:54:42.277Z,12908.00
2019-05-25T06:55:42.259Z,12868.00
2019-05-25T06:56:42.250Z,12744.00
2019-05-25T06:57:43.877Z,12744.00
2019-05-25T06:58:42.244Z,12888.00
2019-05-25T06:59:42.218Z,13344.00
2019-05-25T07:00:42.216Z,13896.00
2019-05-25T07:01:42.197Z,14056.00
2019-05-25T07:02:42.193Z,14112.00
2019-05-25T07:03:42.214Z,14104.00
2019-05-25T07:04:42.225Z,13912.00
2019-05-25T07:05:42.174Z,13776.00
2019-05-25T07:06:42.202Z,13944.00
2019-05-25T07:07:42.145Z,14320.00
2019-05-25T07:08:42.171Z,14544.00
2019-05-25T07:09:42.191Z,14648.00
2019-05-25T07:10:42.176Z,14664.00
2019-05-25T07:11:42.126Z,14428.00
2019-05-25T07:12:42.112Z,14364.00
2019-05-25T07:13:42.105Z,14716.00
2019-05-25T07:14:42.118Z,15060.00
2019-05-25T07:15:42.055Z,15144.00
2019-05-25T07:16:42.028Z,15308.00
2019-05-25T07:17:42.018Z,15436.00
2019-05-25T07:18:42.011Z,14956.00
2019-05-25T07:19:42.017Z,14524.00
2019-05-25T07:20:41.987Z,14968.00
2019-05-25T07:21:41.972Z,16268.00
2019-05-25T07:22:41.966Z,17216.00
2019-05-25T07:23:41.968Z,17184.00
2019-05-25T07:24:41.938Z,16704.00
2019-05-25T07:25:41.929Z,16704.00
2019-05-25T07:26:41.919Z,16960.00
2019-05-25T07:27:57.912Z,17312.00
2019-05-25T07:28:42.908Z,17440.00
2019-05-25T07:29:41.898Z,17344.00
2019-05-25T07:30:41.870Z,16992.00
2019-05-25T07:31:41.858Z,15988.00
2019-05-25T07:32:41.851Z,14760.00
2019-05-25T07:33:41.842Z,13528.00
2019-05-25T07:34:41.864Z,12864.00
2019-05-25T07:35:41.811Z,12896.00
2019-05-25T07:36:41.821Z,13156.00
2019-05-25T07:37:41.794Z,13284.00
2019-05-25T07:38:41.797Z,13432.00
2019-05-25T07:39:41.794Z,13612.00
2019-05-25T07:40:41.822Z,13892.00
2019-05-25T07:41:41.754Z,13900.00
2019-05-25T07:42:41.801Z,13792.00
2019-05-25T07:43:41.729Z,13924.00
2019-05-25T07:44:41.729Z,14216.00
2019-05-25T07:45:41.704Z,14636.00
2019-05-25T07:46:41.707Z,14728.00
2019-05-25T07:47:41.680Z,14704.00
2019-05-25T07:48:41.682Z,15060.00
2019-05-25T07:49:41.665Z,15764.00
2019-05-25T07:50:41.665Z,16800.00
2019-05-25T07:51:41.637Z,17568.00
2019-05-25T07:52:41.631Z,18400.00
2019-05-25T07:53:41.615Z,19296.00
2019-05-25T07:54:41.610Z,19936.00
2019-05-25T07:55:41.615Z,19712.00
2019-05-25T07:56:41.584Z,18816.00
2019-05-25T07:57:41.570Z,18336.00
2019-05-25T07:58:41.559Z,18400.00
2019-05-25T07:59:41.547Z,19072.00
2019-05-25T08:00:41.538Z,20128.00
2019-05-25T08:01:41.555Z,20448.00
2019-05-25T08:02:41.519Z,19840.00
2019-05-25T08:03:41.508Z,18752.00
2019-05-25T08:04:41.500Z,18304.00
2019-05-25T08:05:41.481Z,18208.00
2019-05-25T08:06:41.483Z,18336.00
2019-05-25T08:07:41.471Z,18368.00
2019-05-25T08:08:41.450Z,18528.00
2019-05-25T08:09:41.435Z,18464.00
2019-05-25T08:10:41.427Z,18016.00
2019-05-25T08:11:41.438Z,17728.00
2019-05-25T08:12:41.411Z,17376.00
2019-05-25T08:13:41.395Z,17472.00
2019-05-25T08:14:44.860Z,17536.00
2019-05-25T08:15:41.381Z,17760.00
2019-05-25T08:16:41.374Z,18560.00
2019-05-25T08:17:41.351Z,19552.00
2019-05-25T08:18:41.380Z,21120.00
2019-05-25T08:19:41.340Z,22624.00
2019-05-25T08:20:41.311Z,23584.00
2019-05-25T08:21:41.316Z,24928.00
2019-05-25T08:22:41.303Z,26592.00
2019-05-25T08:23:41.282Z,28160.00
2019-05-25T08:24:41.297Z,29184.00
2019-05-25T08:25:41.270Z,29856.00
2019-05-25T08:26:41.266Z,31584.00
2019-05-25T08:27:41.247Z,33792.00
2019-05-25T08:28:41.229Z,35552.00
2019-05-25T08:29:41.218Z,37280.00
2019-05-25T08:30:41.292Z,37824.00
2019-05-25T08:31:41.204Z,44448.00
2019-05-25T08:32:41.184Z,44608.00
2019-05-25T08:33:41.182Z,40480.00
2019-05-25T08:34:41.159Z,123936.00
2019-05-25T08:35:41.166Z,125024.00
2019-05-25T08:36:41.146Z,89760.00
2019-05-25T08:37:41.132Z,47584.00
2019-05-25T08:38:41.120Z,41632.00
2019-05-25T08:39:41.114Z,95424.00
2019-05-25T08:40:41.112Z,129024.00
2019-05-25T08:41:41.086Z,64032.00
2019-05-25T08:42:41.077Z,43968.00
2019-05-25T08:43:41.075Z,42944.00
2019-05-25T08:44:41.055Z,40064.00
2019-05-25T08:45:41.045Z,43744.00
2019-05-25T08:46:41.038Z,34624.00
2019-05-25T08:47:41.025Z,33472.00
2019-05-25T08:48:41.022Z,31776.00
2019-05-25T08:49:41.006Z,30144.00
2019-05-25T08:50:40.987Z,28960.00
2019-05-25T08:51:40.989Z,27616.00
2019-05-25T08:52:40.971Z,28736.00
2019-05-25T08:53:42.235Z,30496.00
2019-05-25T08:54:40.965Z,33216.00
2019-05-25T08:55:40.950Z,61952.00
2019-05-25T08:56:40.930Z,36224.00
2019-05-25T08:57:40.914Z,32736.00
2019-05-25T08:58:48.419Z,32448.00
2019-05-25T08:59:41.887Z,34432.00
2019-05-25T09:00:40.881Z,37600.00
2019-05-25T09:01:40.867Z,127744.00
2019-05-25T09:02:40.886Z,65952.00
2019-05-25T09:03:40.868Z,83296.00
2019-05-25T09:04:40.855Z,129120.00
2019-05-25T09:05:40.905Z,131168.00
2019-05-25T09:06:40.809Z,70560.00
2019-05-25T09:07:40.891Z,132000.00
2019-05-25T09:08:40.884Z,113120.00
2019-05-25T09:09:40.780Z,43776.00
2019-05-25T09:10:40.769Z,40512.00
2019-05-25T09:11:40.773Z,38272.00
2019-05-25T09:12:40.753Z,36992.00
2019-05-25T09:13:40.738Z,37344.00
2019-05-25T09:14:40.729Z,37344.00
2019-05-25T09:15:40.723Z,137536.00
2019-05-25T09:16:40.713Z,43008.00
2019-05-25T09:17:40.697Z,27200.00
2019-05-25T09:18:40.713Z,25312.00
2019-05-25T09:19:40.676Z,24704.00
2019-05-25T09:20:40.661Z,24960.00
2019-05-25T09:21:40.671Z,25888.00
2019-05-25T09:22:40.641Z,27936.00
2019-05-25T09:23:40.629Z,35584.00
2019-05-25T09:24:40.624Z,54080.00
2019-05-25T09:25:40.615Z,55648.00
2019-05-25T09:26:40.626Z,41120.00
2019-05-25T09:27:40.587Z,47648.00
2019-05-25T09:28:40.593Z,79424.00
2019-05-25T09:29:40.569Z,89216.00
2019-05-25T09:30:40.558Z,35680.00
2019-05-25T09:31:40.548Z,27840.00
2019-05-25T09:32:40.554Z,26016.00
2019-05-25T09:33:40.533Z,25728.00
2019-05-25T09:34:40.526Z,26912.00
2019-05-25T09:35:40.505Z,29856.00
2019-05-25T09:36:40.494Z,38368.00
2019-05-25T09:37:40.500Z,40160.00
2019-05-25T09:38:43.268Z,67744.00
2019-05-25T09:39:40.461Z,130688.00
2019-05-25T09:40:40.448Z,141312.00
2019-05-25T09:41:40.445Z,140096.00
2019-05-25T09:42:40.646Z,119904.00
2019-05-25T09:43:40.428Z,104256.00
2019-05-25T09:44:40.404Z,35392.00
2019-05-25T09:45:40.401Z,53184.00
2019-05-25T09:46:40.389Z,132128.00
2019-05-25T09:47:40.393Z,146944.00
2019-05-25T09:48:40.363Z,46400.00
2019-05-25T09:49:40.356Z,109536.00
2019-05-25T09:50:40.340Z,145024.00
2019-05-25T09:51:40.333Z,60096.00
2019-05-25T09:52:40.334Z,74624.00
2019-05-25T09:53:40.309Z,146208.00
2019-05-25T09:54:40.317Z,141120.00
2019-05-25T09:55:40.294Z,142816.00
2019-05-25T09:56:40.281Z,127840.00
2019-05-25T09:57:41.761Z,135200.00
2019-05-25T09:58:40.276Z,132192.00
2019-05-25T09:59:40.255Z,135520.00
2019-05-25T10:00:40.672Z,38816.00
2019-05-25T10:01:40.257Z,150848.00
2019-05-25T10:02:40.364Z,36320.00
2019-05-25T10:03:40.223Z,39168.00
2019-05-25T10:04:40.213Z,72352.00
2019-05-25T10:05:40.206Z,41248.00
2019-05-25T10:06:40.181Z,40448.00
2019-05-25T10:07:40.183Z,141888.00
2019-05-25T10:08:40.161Z,129568.00
2019-05-25T10:09:40.445Z,55168.00
2019-05-25T10:10:40.157Z,41216.00
2019-05-25T10:11:40.145Z,36864.00
2019-05-25T10:12:40.164Z,34944.00
2019-05-25T10:13:40.114Z,40608.00
2019-05-25T10:14:40.109Z,47872.00
2019-05-25T10:15:40.110Z,29376.00
2019-05-25T10:16:40.079Z,66496.00
2019-05-25T10:17:40.075Z,31584.00
2019-05-25T10:18:40.058Z,43456.00
2019-05-25T10:19:40.061Z,88736.00
2019-05-25T10:20:40.052Z,64288.00
2019-05-25T10:21:40.028Z,128928.00
2019-05-25T10:22:40.018Z,122368.00
2019-05-25T10:23:40.016Z,124960.00
2019-05-25T10:24:40.003Z,124192.00
2019-05-25T10:25:40.006Z,126176.00
2019-05-25T10:26:39.981Z,125600.00
2019-05-25T10:27:39.981Z,132864.00
2019-05-25T10:28:39.964Z,128640.00
2019-05-25T10:29:39.951Z,128640.00
2019-05-25T10:30:39.955Z,133792.00
2019-05-25T10:31:39.939Z,121760.00
2019-05-25T10:32:39.927Z,131264.00
2019-05-25T10:33:39.909Z,132448.00
2019-05-25T10:34:39.905Z,123456.00
2019-05-25T10:35:39.901Z,143968.00
2019-05-25T10:36:39.892Z,142496.00
2019-05-25T10:37:39.872Z,142048.00
2019-05-25T10:38:39.863Z,146336.00
2019-05-25T10:39:39.858Z,134368.00
2019-05-25T10:40:39.845Z,138944.00
2019-05-25T10:41:39.848Z,136032.00
2019-05-25T10:42:39.829Z,113568.00
2019-05-25T10:43:39.823Z,122912.00
2019-05-25T10:44:39.812Z,124960.00
2019-05-25T10:45:39.811Z,124960.00
2019-05-25T10:46:39.803Z,126528.00
2019-05-25T10:47:39.795Z,129792.00
2019-05-25T10:48:39.770Z,129056.00
2019-05-25T10:49:39.765Z,128864.00
2019-05-25T10:50:39.756Z,134240.00
2019-05-25T10:51:39.754Z,141536.00
2019-05-25T10:52:39.751Z,137888.00
2019-05-25T10:53:39.742Z,135456.00
2019-05-25T10:54:39.721Z,65952.00
2019-05-25T10:55:39.715Z,77600.00
2019-05-25T10:56:39.697Z,55200.00
2019-05-25T10:57:39.717Z,47712.00
2019-05-25T10:58:39.678Z,105344.00
2019-05-25T10:59:51.844Z,40736.00
2019-05-25T11:00:40.664Z,35008.00
2019-05-25T11:01:39.658Z,31360.00
2019-05-25T11:02:39.639Z,28576.00
2019-05-25T11:03:39.642Z,26080.00
2019-05-25T11:04:39.632Z,25728.00
2019-05-25T11:05:39.613Z,32512.00
2019-05-25T11:06:39.601Z,133632.00
2019-05-25T11:07:39.632Z,135008.00
2019-05-25T11:08:39.582Z,82496.00
2019-05-25T11:09:39.583Z,40448.00
2019-05-25T11:10:39.562Z,41504.00
2019-05-25T11:11:39.554Z,46176.00
2019-05-25T11:12:39.540Z,43904.00
2019-05-25T11:13:39.528Z,38688.00
2019-05-25T11:14:39.532Z,39904.00
2019-05-25T11:15:39.509Z,43712.00
2019-05-25T11:16:39.498Z,41824.00
2019-05-25T11:17:39.514Z,34144.00
2019-05-25T11:18:39.480Z,32192.00
2019-05-25T11:19:39.491Z,30784.00
2019-05-25T11:20:39.459Z,30560.00
2019-05-25T11:21:39.448Z,32576.00
2019-05-25T11:22:39.456Z,36576.00
2019-05-25T11:23:39.432Z,40896.00
2019-05-25T11:24:39.416Z,62496.00
2019-05-25T11:25:39.421Z,99392.00
2019-05-25T11:26:39.406Z,55840.00
2019-05-25T11:27:39.385Z,159968.00
2019-05-25T11:28:39.375Z,53088.00
2019-05-25T11:29:39.365Z,51168.00
2019-05-25T11:30:39.371Z,47168.00
2019-05-25T11:31:39.346Z,145888.00
2019-05-25T11:32:39.333Z,77088.00
2019-05-25T11:33:39.348Z,72704.00
2019-05-25T11:34:39.317Z,141120.00
2019-05-25T11:35:39.325Z,44416.00
2019-05-25T11:36:39.293Z,34688.00
2019-05-25T11:37:39.286Z,29888.00
2019-05-25T11:38:39.287Z,28000.00
2019-05-25T11:39:39.267Z,26688.00
2019-05-25T11:40:39.265Z,27488.00
2019-05-25T11:41:39.242Z,29440.00
2019-05-25T11:42:39.241Z,32352.00
2019-05-25T11:43:39.220Z,37600.00
2019-05-25T11:44:39.212Z,39104.00
2019-05-25T11:45:39.242Z,64576.00
2019-05-25T11:46:39.197Z,43488.00
2019-05-25T11:47:39.184Z,139744.00
2019-05-25T11:48:39.169Z,138656.00
2019-05-25T11:49:39.158Z,135200.00
2019-05-25T11:50:39.149Z,46240.00
2019-05-25T11:51:39.164Z,36512.00
2019-05-25T11:52:39.325Z,35552.00
2019-05-25T11:53:39.124Z,35264.00
2019-05-25T11:54:39.106Z,34688.00
2019-05-25T11:55:39.096Z,33152.00
2019-05-25T11:56:39.091Z,32608.00
2019-05-25T11:57:39.097Z,31712.00
2019-05-25T11:58:46.990Z,30560.00
2019-05-25T11:59:40.053Z,30112.00
2019-05-25T12:00:39.059Z,29728.00
2019-05-25T12:01:39.047Z,29568.00
2019-05-25T12:02:39.031Z,29728.00
2019-05-25T12:03:39.019Z,31232.00
2019-05-25T12:04:39.003Z,33120.00
2019-05-25T12:05:39.015Z,35104.00
2019-05-25T12:06:38.980Z,48512.00
2019-05-25T12:07:38.971Z,108864.00
2019-05-25T12:08:38.960Z,39936.00
2019-05-25T12:09:38.947Z,42432.00
2019-05-25T12:10:38.943Z,71040.00
2019-05-25T12:11:38.943Z,46592.00